Supply — NACO — position and weather

sailwx.info

Track history (hours):
 
Tides and Currents Weather Stations Pressure Air Temp Water Temp Dewpoint Dewpoint Depression Visibility Wind Speed Wind Dir Waves Ship Positions

Supply

Last reported at 2017-Nov-15 19:26 UTC. Time now 2017-Dec-18 12:27 UTC.
Position N 36°57' W 076°20'.
Warning: this ship's position is 32 days out of date.

Length 230 m; draft 11 m.

Type: Military. MMSI: 338947000.

Date/timePositionNaut miles runAvg speedWind from/ knotsBaromVisibWave heightAir tempDewpointWater temp
2017-Nov-15 19:26N 36°57' W 076°20'11 8.1
2017-Nov-15 18:03N 36°58' W 076°06'115.7
2017-Nov-15 18:00N 36°58' W 076°05'713.1
2017-Nov-15 17:30N 36°56' W 075°57'4 9.1
2017-Nov-15 17:00N 36°53' W 075°53'  
2017-Nov-09 22:33N 36°57' W 076°20'0 0.2
2017-Nov-09 22:29N 36°57' W 076°20'0 0.7
2017-Nov-09 22:00N 36°56' W 076°20'3 6.3
2017-Nov-09 21:30N 36°53' W 076°20'0 0.0
2017-Nov-09 00:05N 36°53' W 076°20'0 0.0
2017-Nov-09 00:01N 36°53' W 076°20'0 0.9
2017-Nov-08 23:30N 36°54' W 076°20'4 7.9
2017-Nov-08 23:00N 36°58' W 076°20'611.6
2017-Nov-08 22:30N 37°00' W 076°14'714.2
2017-Nov-08 22:00N 36°58' W 076°05'712.9
2017-Nov-08 21:30N 36°56' W 075°57'5 9.8
2017-Nov-08 21:00N 36°53' W 075°53'  
Track history (hours):
 
Tides and Currents Weather Stations Pressure Air Temp Water Temp Dewpoint Dewpoint Depression Visibility Wind Speed Wind Dir Waves Ship Positions

Supply

Last reported at 2017-Nov-15 19:26 UTC. Time now 2017-Dec-18 12:27 UTC.
Position N 36°57' W 076°20'.
Warning: this ship's position is 32 days out of date.

Length 230 m; draft 11 m.

Type: Military. MMSI: 338947000.

Date/timePositionNaut miles runAvg speedWind from/ knotsBaromVisibWave heightAir tempDewpointWater temp
2017-Nov-15 19:26N 36°57' W 076°20'11 8.1
2017-Nov-15 18:03N 36°58' W 076°06'115.7
2017-Nov-15 18:00N 36°58' W 076°05'713.1
2017-Nov-15 17:30N 36°56' W 075°57'4 9.1
2017-Nov-15 17:00N 36°53' W 075°53'  
2017-Nov-09 22:33N 36°57' W 076°20'0 0.2
2017-Nov-09 22:29N 36°57' W 076°20'0 0.7
2017-Nov-09 22:00N 36°56' W 076°20'3 6.3
2017-Nov-09 21:30N 36°53' W 076°20'0 0.0
2017-Nov-09 00:05N 36°53' W 076°20'0 0.0
2017-Nov-09 00:01N 36°53' W 076°20'0 0.9
2017-Nov-08 23:30N 36°54' W 076°20'4 7.9
2017-Nov-08 23:00N 36°58' W 076°20'611.6
2017-Nov-08 22:30N 37°00' W 076°14'714.2
2017-Nov-08 22:00N 36°58' W 076°05'712.9
2017-Nov-08 21:30N 36°56' W 075°57'5 9.8
2017-Nov-08 21:00N 36°53' W 075°53'  

Dump ship's entire track history